sensor_id;sensor_type;location;lat;lon;timestamp;P1;durP1;ratioP1;P2;durP2;ratioP2
48052;SDS011;33824;51.600;5.718;2023-04-24T00:00:08;0.93;;;0.75;;
48052;SDS011;33824;51.600;5.718;2023-04-24T00:02:59;1.75;;;1.40;;
48052;SDS011;33824;51.600;5.718;2023-04-24T00:05:25;2.80;;;1.63;;
48052;SDS011;33824;51.600;5.718;2023-04-24T00:07:53;2.30;;;1.40;;
48052;SDS011;33824;51.600;5.718;2023-04-24T00:10:19;2.85;;;1.85;;
48052;SDS011;33824;51.600;5.718;2023-04-24T00:12:45;2.17;;;1.70;;
48052;SDS011;33824;51.600;5.718;2023-04-24T00:15:10;1.80;;;1.33;;
48052;SDS011;33824;51.600;5.718;2023-04-24T00:17:36;2.45;;;1.75;;
48052;SDS011;33824;51.600;5.718;2023-04-24T00:20:02;4.28;;;1.73;;
48052;SDS011;33824;51.600;5.718;2023-04-24T00:22:30;2.20;;;1.50;;
48052;SDS011;33824;51.600;5.718;2023-04-24T00:24:56;1.10;;;1.00;;
48052;SDS011;33824;51.600;5.718;2023-04-24T00:27:22;2.50;;;1.75;;
48052;SDS011;33824;51.600;5.718;2023-04-24T00:29:47;4.78;;;2.53;;
48052;SDS011;33824;51.600;5.718;2023-04-24T00:32:13;2.85;;;1.75;;
48052;SDS011;33824;51.600;5.718;2023-04-24T00:34:39;4.57;;;2.03;;
48052;SDS011;33824;51.600;5.718;2023-04-24T00:37:05;3.58;;;2.28;;
48052;SDS011;33824;51.600;5.718;2023-04-24T00:39:32;4.63;;;2.80;;
48052;SDS011;33824;51.600;5.718;2023-04-24T00:41:57;5.20;;;2.58;;
48052;SDS011;33824;51.600;5.718;2023-04-24T00:44:23;3.40;;;1.88;;
48052;SDS011;33824;51.600;5.718;2023-04-24T00:46:49;2.70;;;1.83;;
48052;SDS011;33824;51.600;5.718;2023-04-24T00:49:20;6.73;;;2.90;;
48052;SDS011;33824;51.600;5.718;2023-04-24T00:51:47;4.63;;;2.65;;
48052;SDS011;33824;51.600;5.718;2023-04-24T00:54:14;4.28;;;2.15;;
48052;SDS011;33824;51.600;5.718;2023-04-24T00:56:41;4.35;;;2.70;;
48052;SDS011;33824;51.600;5.718;2023-04-24T00:59:07;4.63;;;3.08;;
48052;SDS011;33824;51.600;5.718;2023-04-24T01:01:33;5.30;;;2.88;;
48052;SDS011;33824;51.600;5.718;2023-04-24T01:04:00;3.88;;;2.70;;
48052;SDS011;33824;51.600;5.718;2023-04-24T01:06:27;5.95;;;3.38;;
48052;SDS011;33824;51.600;5.718;2023-04-24T01:08:54;5.95;;;2.67;;
48052;SDS011;33824;51.600;5.718;2023-04-24T01:11:23;4.55;;;2.45;;
48052;SDS011;33824;51.600;5.718;2023-04-24T01:13:50;4.22;;;2.40;;
48052;SDS011;33824;51.600;5.718;2023-04-24T01:16:16;4.60;;;2.85;;
48052;SDS011;33824;51.600;5.718;2023-04-24T01:18:43;4.38;;;2.97;;
48052;SDS011;33824;51.600;5.718;2023-04-24T01:21:09;3.78;;;2.42;;
48052;SDS011;33824;51.600;5.718;2023-04-24T01:23:38;4.55;;;3.05;;
48052;SDS011;33824;51.600;5.718;2023-04-24T01:26:04;4.85;;;2.67;;
48052;SDS011;33824;51.600;5.718;2023-04-24T01:28:29;3.70;;;2.80;;
48052;SDS011;33824;51.600;5.718;2023-04-24T01:30:55;6.28;;;2.70;;
48052;SDS011;33824;51.600;5.718;2023-04-24T01:33:21;4.55;;;2.50;;
48052;SDS011;33824;51.600;5.718;2023-04-24T01:35:47;3.75;;;2.58;;
48052;SDS011;33824;51.600;5.718;2023-04-24T01:38:13;4.45;;;3.08;;
48052;SDS011;33824;51.600;5.718;2023-04-24T01:40:39;3.85;;;2.40;;
48052;SDS011;33824;51.600;5.718;2023-04-24T01:43:05;3.95;;;3.00;;
48052;SDS011;33824;51.600;5.718;2023-04-24T01:45:30;15.60;;;4.85;;
48052;SDS011;33824;51.600;5.718;2023-04-24T01:47:56;4.25;;;2.95;;
48052;SDS011;33824;51.600;5.718;2023-04-24T01:50:22;6.80;;;2.90;;
48052;SDS011;33824;51.600;5.718;2023-04-24T01:52:48;4.93;;;3.13;;
48052;SDS011;33824;51.600;5.718;2023-04-24T01:55:13;6.18;;;2.95;;
48052;SDS011;33824;51.600;5.718;2023-04-24T01:57:39;4.72;;;2.97;;
48052;SDS011;33824;51.600;5.718;2023-04-24T02:00:08;8.02;;;3.53;;
48052;SDS011;33824;51.600;5.718;2023-04-24T02:02:34;5.22;;;3.22;;
48052;SDS011;33824;51.600;5.718;2023-04-24T02:04:59;7.38;;;3.95;;
48052;SDS011;33824;51.600;5.718;2023-04-24T02:07:26;7.90;;;3.60;;
48052;SDS011;33824;51.600;5.718;2023-04-24T02:09:51;8.68;;;4.07;;
48052;SDS011;33824;51.600;5.718;2023-04-24T02:12:17;8.88;;;3.97;;
48052;SDS011;33824;51.600;5.718;2023-04-24T02:14:43;7.97;;;4.18;;
48052;SDS011;33824;51.600;5.718;2023-04-24T02:17:09;9.48;;;3.67;;
48052;SDS011;33824;51.600;5.718;2023-04-24T02:19:35;7.72;;;4.38;;
48052;SDS011;33824;51.600;5.718;2023-04-24T02:22:00;6.18;;;3.50;;
48052;SDS011;33824;51.600;5.718;2023-04-24T02:24:26;6.40;;;3.90;;
48052;SDS011;33824;51.600;5.718;2023-04-24T02:26:52;6.57;;;3.72;;
48052;SDS011;33824;51.600;5.718;2023-04-24T02:29:17;6.47;;;4.07;;
48052;SDS011;33824;51.600;5.718;2023-04-24T02:31:43;6.03;;;3.97;;
48052;SDS011;33824;51.600;5.718;2023-04-24T02:34:08;6.88;;;4.68;;
48052;SDS011;33824;51.600;5.718;2023-04-24T02:36:34;7.82;;;4.95;;
48052;SDS011;33824;51.600;5.718;2023-04-24T02:38:59;6.30;;;3.95;;
48052;SDS011;33824;51.600;5.718;2023-04-24T02:41:26;10.27;;;4.45;;
48052;SDS011;33824;51.600;5.718;2023-04-24T02:43:56;7.15;;;3.95;;
48052;SDS011;33824;51.600;5.718;2023-04-24T02:46:23;6.38;;;3.83;;
48052;SDS011;33824;51.600;5.718;2023-04-24T02:48:48;6.30;;;3.70;;
48052;SDS011;33824;51.600;5.718;2023-04-24T02:51:14;7.57;;;4.35;;
48052;SDS011;33824;51.600;5.718;2023-04-24T02:53:39;8.82;;;3.95;;
48052;SDS011;33824;51.600;5.718;2023-04-24T02:56:05;7.45;;;4.03;;
48052;SDS011;33824;51.600;5.718;2023-04-24T02:58:31;6.10;;;3.78;;
48052;SDS011;33824;51.600;5.718;2023-04-24T03:00:56;7.20;;;5.22;;
48052;SDS011;33824;51.600;5.718;2023-04-24T03:03:22;8.15;;;4.55;;
48052;SDS011;33824;51.600;5.718;2023-04-24T03:05:48;8.90;;;3.97;;
48052;SDS011;33824;51.600;5.718;2023-04-24T03:08:13;6.22;;;3.95;;
48052;SDS011;33824;51.600;5.718;2023-04-24T03:10:39;7.95;;;4.65;;
48052;SDS011;33824;51.600;5.718;2023-04-24T03:13:05;5.80;;;3.58;;
48052;SDS011;33824;51.600;5.718;2023-04-24T03:15:31;6.43;;;3.88;;
48052;SDS011;33824;51.600;5.718;2023-04-24T03:17:56;4.85;;;3.28;;
48052;SDS011;33824;51.600;5.718;2023-04-24T03:20:22;6.95;;;4.05;;
48052;SDS011;33824;51.600;5.718;2023-04-24T03:22:47;6.32;;;3.88;;
48052;SDS011;33824;51.600;5.718;2023-04-24T03:25:13;6.85;;;3.97;;
48052;SDS011;33824;51.600;5.718;2023-04-24T03:27:38;6.45;;;3.42;;
48052;SDS011;33824;51.600;5.718;2023-04-24T03:30:05;7.82;;;4.25;;
48052;SDS011;33824;51.600;5.718;2023-04-24T03:32:31;5.53;;;3.60;;
48052;SDS011;33824;51.600;5.718;2023-04-24T03:34:57;6.88;;;3.70;;
48052;SDS011;33824;51.600;5.718;2023-04-24T03:37:23;4.90;;;3.22;;
48052;SDS011;33824;51.600;5.718;2023-04-24T03:39:48;6.05;;;3.50;;
48052;SDS011;33824;51.600;5.718;2023-04-24T03:42:14;6.82;;;3.92;;
48052;SDS011;33824;51.600;5.718;2023-04-24T03:44:40;7.05;;;3.88;;
48052;SDS011;33824;51.600;5.718;2023-04-24T03:47:05;8.70;;;4.00;;
48052;SDS011;33824;51.600;5.718;2023-04-24T03:49:31;6.00;;;3.67;;
48052;SDS011;33824;51.600;5.718;2023-04-24T03:51:56;6.93;;;4.13;;
48052;SDS011;33824;51.600;5.718;2023-04-24T03:54:22;7.18;;;3.67;;
48052;SDS011;33824;51.600;5.718;2023-04-24T03:56:48;4.95;;;2.95;;
48052;SDS011;33824;51.600;5.718;2023-04-24T03:59:13;6.57;;;3.53;;
48052;SDS011;33824;51.600;5.718;2023-04-24T04:01:39;5.10;;;3.42;;
48052;SDS011;33824;51.600;5.718;2023-04-24T04:04:07;4.35;;;2.75;;
48052;SDS011;33824;51.600;5.718;2023-04-24T04:06:33;4.65;;;3.00;;
48052;SDS011;33824;51.600;5.718;2023-04-24T04:08:59;6.28;;;3.40;;
48052;SDS011;33824;51.600;5.718;2023-04-24T04:11:25;5.72;;;3.42;;
48052;SDS011;33824;51.600;5.718;2023-04-24T04:13:51;4.78;;;2.85;;
48052;SDS011;33824;51.600;5.718;2023-04-24T04:16:16;8.32;;;3.85;;
48052;SDS011;33824;51.600;5.718;2023-04-24T04:18:43;6.07;;;3.42;;
48052;SDS011;33824;51.600;5.718;2023-04-24T04:21:09;4.82;;;2.78;;
48052;SDS011;33824;51.600;5.718;2023-04-24T04:23:35;4.75;;;2.97;;
48052;SDS011;33824;51.600;5.718;2023-04-24T04:26:00;4.55;;;2.70;;
48052;SDS011;33824;51.600;5.718;2023-04-24T04:28:26;4.80;;;2.80;;
48052;SDS011;33824;51.600;5.718;2023-04-24T04:30:52;5.00;;;2.88;;
48052;SDS011;33824;51.600;5.718;2023-04-24T04:33:23;4.93;;;2.80;;
48052;SDS011;33824;51.600;5.718;2023-04-24T04:35:51;6.30;;;3.00;;
48052;SDS011;33824;51.600;5.718;2023-04-24T04:38:18;2.78;;;2.10;;
48052;SDS011;33824;51.600;5.718;2023-04-24T04:40:44;5.47;;;2.88;;
48052;SDS011;33824;51.600;5.718;2023-04-24T04:43:11;5.63;;;2.42;;
48052;SDS011;33824;51.600;5.718;2023-04-24T04:45:38;6.28;;;2.55;;
48052;SDS011;33824;51.600;5.718;2023-04-24T04:48:05;3.30;;;2.42;;
48052;SDS011;33824;51.600;5.718;2023-04-24T04:50:33;3.40;;;2.20;;
48052;SDS011;33824;51.600;5.718;2023-04-24T04:52:58;2.33;;;1.70;;
48052;SDS011;33824;51.600;5.718;2023-04-24T04:55:24;5.03;;;3.08;;
48052;SDS011;33824;51.600;5.718;2023-04-24T04:57:50;5.40;;;2.35;;
48052;SDS011;33824;51.600;5.718;2023-04-24T05:00:16;3.30;;;2.42;;
48052;SDS011;33824;51.600;5.718;2023-04-24T05:02:41;5.15;;;2.55;;
48052;SDS011;33824;51.600;5.718;2023-04-24T05:05:07;4.00;;;2.13;;
48052;SDS011;33824;51.600;5.718;2023-04-24T05:07:34;5.22;;;2.33;;
48052;SDS011;33824;51.600;5.718;2023-04-24T05:09:59;3.05;;;2.00;;
48052;SDS011;33824;51.600;5.718;2023-04-24T05:12:25;3.38;;;2.17;;
48052;SDS011;33824;51.600;5.718;2023-04-24T05:14:51;3.10;;;2.00;;
48052;SDS011;33824;51.600;5.718;2023-04-24T05:17:17;2.50;;;1.73;;
48052;SDS011;33824;51.600;5.718;2023-04-24T05:19:43;2.67;;;1.88;;
48052;SDS011;33824;51.600;5.718;2023-04-24T05:22:09;2.47;;;1.83;;
48052;SDS011;33824;51.600;5.718;2023-04-24T05:24:35;3.30;;;1.80;;
48052;SDS011;33824;51.600;5.718;2023-04-24T05:27:02;3.33;;;2.13;;
48052;SDS011;33824;51.600;5.718;2023-04-24T05:29:28;3.25;;;1.60;;
48052;SDS011;33824;51.600;5.718;2023-04-24T05:31:56;3.00;;;1.88;;
48052;SDS011;33824;51.600;5.718;2023-04-24T05:34:21;3.15;;;2.10;;
48052;SDS011;33824;51.600;5.718;2023-04-24T05:36:47;4.38;;;2.53;;
48052;SDS011;33824;51.600;5.718;2023-04-24T05:39:13;3.42;;;1.80;;
48052;SDS011;33824;51.600;5.718;2023-04-24T05:41:39;2.40;;;1.63;;
48052;SDS011;33824;51.600;5.718;2023-04-24T05:44:04;2.42;;;1.33;;
48052;SDS011;33824;51.600;5.718;2023-04-24T05:46:30;2.50;;;1.52;;
48052;SDS011;33824;51.600;5.718;2023-04-24T05:48:55;3.45;;;1.50;;
48052;SDS011;33824;51.600;5.718;2023-04-24T05:51:21;2.65;;;1.90;;
48052;SDS011;33824;51.600;5.718;2023-04-24T05:53:46;3.13;;;1.70;;
48052;SDS011;33824;51.600;5.718;2023-04-24T05:56:12;1.63;;;1.20;;
48052;SDS011;33824;51.600;5.718;2023-04-24T05:58:37;2.55;;;1.33;;
48052;SDS011;33824;51.600;5.718;2023-04-24T06:01:03;1.90;;;1.50;;
48052;SDS011;33824;51.600;5.718;2023-04-24T06:03:29;2.25;;;1.60;;
48052;SDS011;33824;51.600;5.718;2023-04-24T06:05:54;2.17;;;1.45;;
48052;SDS011;33824;51.600;5.718;2023-04-24T06:08:20;1.77;;;1.00;;
48052;SDS011;33824;51.600;5.718;2023-04-24T06:10:45;1.90;;;1.40;;
48052;SDS011;33824;51.600;5.718;2023-04-24T06:13:11;3.10;;;1.55;;
48052;SDS011;33824;51.600;5.718;2023-04-24T06:15:37;1.65;;;1.38;;
48052;SDS011;33824;51.600;5.718;2023-04-24T06:18:03;1.95;;;0.93;;
48052;SDS011;33824;51.600;5.718;2023-04-24T06:20:29;1.55;;;0.98;;
48052;SDS011;33824;51.600;5.718;2023-04-24T06:22:54;1.23;;;0.77;;
48052;SDS011;33824;51.600;5.718;2023-04-24T06:25:20;1.25;;;0.82;;
48052;SDS011;33824;51.600;5.718;2023-04-24T06:27:46;1.10;;;0.60;;
48052;SDS011;33824;51.600;5.718;2023-04-24T06:30:11;0.70;;;0.65;;
48052;SDS011;33824;51.600;5.718;2023-04-24T06:32:37;0.45;;;0.45;;
48052;SDS011;33824;51.600;5.718;2023-04-24T06:35:03;1.27;;;0.70;;
48052;SDS011;33824;51.600;5.718;2023-04-24T06:37:29;0.90;;;0.70;;
48052;SDS011;33824;51.600;5.718;2023-04-24T06:39:55;1.10;;;0.95;;
48052;SDS011;33824;51.600;5.718;2023-04-24T06:42:20;0.65;;;0.65;;
48052;SDS011;33824;51.600;5.718;2023-04-24T06:44:47;0.60;;;0.60;;
48052;SDS011;33824;51.600;5.718;2023-04-24T06:47:12;0.82;;;0.73;;
48052;SDS011;33824;51.600;5.718;2023-04-24T06:49:39;0.82;;;0.50;;
48052;SDS011;33824;51.600;5.718;2023-04-24T06:52:05;0.68;;;0.60;;
48052;SDS011;33824;51.600;5.718;2023-04-24T06:54:32;1.17;;;0.68;;
48052;SDS011;33824;51.600;5.718;2023-04-24T06:56:58;0.50;;;0.50;;
48052;SDS011;33824;51.600;5.718;2023-04-24T06:59:24;0.90;;;0.60;;
48052;SDS011;33824;51.600;5.718;2023-04-24T07:01:50;0.57;;;0.50;;
48052;SDS011;33824;51.600;5.718;2023-04-24T07:04:18;0.63;;;0.60;;
48052;SDS011;33824;51.600;5.718;2023-04-24T07:06:47;0.63;;;0.52;;
48052;SDS011;33824;51.600;5.718;2023-04-24T07:09:14;0.60;;;0.60;;
48052;SDS011;33824;51.600;5.718;2023-04-24T07:11:41;0.95;;;0.70;;
48052;SDS011;33824;51.600;5.718;2023-04-24T07:14:08;1.20;;;0.73;;
48052;SDS011;33824;51.600;5.718;2023-04-24T07:16:33;3.05;;;0.85;;
48052;SDS011;33824;51.600;5.718;2023-04-24T07:19:00;1.17;;;1.00;;
48052;SDS011;33824;51.600;5.718;2023-04-24T07:21:25;1.60;;;0.85;;
48052;SDS011;33824;51.600;5.718;2023-04-24T07:23:52;0.80;;;0.77;;
48052;SDS011;33824;51.600;5.718;2023-04-24T07:26:17;1.00;;;0.80;;
48052;SDS011;33824;51.600;5.718;2023-04-24T07:28:43;1.38;;;0.88;;
48052;SDS011;33824;51.600;5.718;2023-04-24T07:31:08;1.25;;;1.02;;
48052;SDS011;33824;51.600;5.718;2023-04-24T07:33:34;1.85;;;1.27;;
48052;SDS011;33824;51.600;5.718;2023-04-24T07:36:01;4.93;;;1.67;;
48052;SDS011;33824;51.600;5.718;2023-04-24T07:38:28;4.35;;;2.17;;
48052;SDS011;33824;51.600;5.718;2023-04-24T07:40:54;4.55;;;1.70;;
48052;SDS011;33824;51.600;5.718;2023-04-24T07:43:21;2.72;;;1.95;;
48052;SDS011;33824;51.600;5.718;2023-04-24T07:45:47;2.38;;;1.73;;
48052;SDS011;33824;51.600;5.718;2023-04-24T07:48:12;3.25;;;1.98;;
48052;SDS011;33824;51.600;5.718;2023-04-24T07:50:41;4.75;;;2.00;;
48052;SDS011;33824;51.600;5.718;2023-04-24T07:53:07;1.52;;;1.20;;
48052;SDS011;33824;51.600;5.718;2023-04-24T07:55:33;3.38;;;1.73;;
48052;SDS011;33824;51.600;5.718;2023-04-24T07:57:58;4.05;;;2.10;;
48052;SDS011;33824;51.600;5.718;2023-04-24T08:00:24;3.80;;;1.92;;
48052;SDS011;33824;51.600;5.718;2023-04-24T08:02:49;2.85;;;1.73;;
48052;SDS011;33824;51.600;5.718;2023-04-24T08:05:15;2.78;;;1.67;;
48052;SDS011;33824;51.600;5.718;2023-04-24T08:07:41;5.85;;;1.88;;
48052;SDS011;33824;51.600;5.718;2023-04-24T08:10:09;3.80;;;1.67;;
48052;SDS011;33824;51.600;5.718;2023-04-24T08:12:36;2.10;;;1.27;;
48052;SDS011;33824;51.600;5.718;2023-04-24T08:15:04;2.70;;;1.92;;
48052;SDS011;33824;51.600;5.718;2023-04-24T08:17:30;3.70;;;1.45;;
48052;SDS011;33824;51.600;5.718;2023-04-24T08:19:56;3.40;;;1.60;;
48052;SDS011;33824;51.600;5.718;2023-04-24T08:22:27;2.33;;;1.55;;
48052;SDS011;33824;51.600;5.718;2023-04-24T08:24:53;1.52;;;1.25;;
48052;SDS011;33824;51.600;5.718;2023-04-24T08:27:19;3.80;;;1.40;;
48052;SDS011;33824;51.600;5.718;2023-04-24T08:29:44;4.88;;;1.48;;
48052;SDS011;33824;51.600;5.718;2023-04-24T08:32:10;2.58;;;1.65;;
48052;SDS011;33824;51.600;5.718;2023-04-24T08:34:35;2.67;;;1.88;;
48052;SDS011;33824;51.600;5.718;2023-04-24T08:37:02;3.30;;;1.02;;
48052;SDS011;33824;51.600;5.718;2023-04-24T08:39:27;3.78;;;1.20;;
48052;SDS011;33824;51.600;5.718;2023-04-24T08:41:54;2.03;;;1.02;;
48052;SDS011;33824;51.600;5.718;2023-04-24T08:44:20;2.33;;;1.45;;
48052;SDS011;33824;51.600;5.718;2023-04-24T08:46:47;1.67;;;0.90;;
48052;SDS011;33824;51.600;5.718;2023-04-24T08:49:14;2.63;;;1.33;;
48052;SDS011;33824;51.600;5.718;2023-04-24T08:51:43;2.20;;;1.40;;
48052;SDS011;33824;51.600;5.718;2023-04-24T08:54:11;2.45;;;1.05;;
48052;SDS011;33824;51.600;5.718;2023-04-24T08:56:37;2.05;;;1.20;;
48052;SDS011;33824;51.600;5.718;2023-04-24T08:59:05;1.63;;;0.93;;
48052;SDS011;33824;51.600;5.718;2023-04-24T09:01:32;1.98;;;0.63;;
48052;SDS011;33824;51.600;5.718;2023-04-24T09:03:59;2.55;;;1.45;;
48052;SDS011;33824;51.600;5.718;2023-04-24T09:06:28;3.40;;;1.17;;
48052;SDS011;33824;51.600;5.718;2023-04-24T09:08:54;1.98;;;0.77;;
48052;SDS011;33824;51.600;5.718;2023-04-24T09:11:22;1.50;;;0.80;;
48052;SDS011;33824;51.600;5.718;2023-04-24T09:13:49;2.88;;;0.85;;
48052;SDS011;33824;51.600;5.718;2023-04-24T09:16:16;3.50;;;1.17;;
48052;SDS011;33824;51.600;5.718;2023-04-24T09:18:42;2.20;;;1.50;;
48052;SDS011;33824;51.600;5.718;2023-04-24T09:21:08;4.05;;;1.00;;
48052;SDS011;33824;51.600;5.718;2023-04-24T09:23:35;3.03;;;1.60;;
48052;SDS011;33824;51.600;5.718;2023-04-24T09:26:02;2.92;;;0.80;;
48052;SDS011;33824;51.600;5.718;2023-04-24T09:28:35;1.55;;;0.68;;
48052;SDS011;33824;51.600;5.718;2023-04-24T09:31:23;2.15;;;0.90;;
48052;SDS011;33824;51.600;5.718;2023-04-24T09:33:58;2.30;;;1.00;;
48052;SDS011;33824;51.600;5.718;2023-04-24T09:36:34;5.70;;;0.93;;
48052;SDS011;33824;51.600;5.718;2023-04-24T09:41:33;2.50;;;0.77;;
48052;SDS011;33824;51.600;5.718;2023-04-24T09:46:50;2.00;;;0.82;;
48052;SDS011;33824;51.600;5.718;2023-04-24T09:49:21;1.58;;;0.70;;
48052;SDS011;33824;51.600;5.718;2023-04-24T09:51:50;1.95;;;0.88;;
48052;SDS011;33824;51.600;5.718;2023-04-24T09:54:17;2.92;;;0.90;;
48052;SDS011;33824;51.600;5.718;2023-04-24T09:56:46;1.25;;;0.68;;
48052;SDS011;33824;51.600;5.718;2023-04-24T09:59:14;2.35;;;0.90;;
48052;SDS011;33824;51.600;5.718;2023-04-24T10:01:41;1.52;;;1.00;;
48052;SDS011;33824;51.600;5.718;2023-04-24T10:04:20;2.03;;;1.08;;
48052;SDS011;33824;51.600;5.718;2023-04-24T10:06:47;3.05;;;1.00;;
48052;SDS011;33824;51.600;5.718;2023-04-24T10:09:14;1.40;;;0.75;;
48052;SDS011;33824;51.600;5.718;2023-04-24T10:11:41;3.75;;;0.98;;
48052;SDS011;33824;51.600;5.718;2023-04-24T10:14:13;3.85;;;1.40;;
48052;SDS011;33824;51.600;5.718;2023-04-24T10:16:40;5.05;;;1.20;;
48052;SDS011;33824;51.600;5.718;2023-04-24T10:19:09;8.68;;;1.30;;
48052;SDS011;33824;51.600;5.718;2023-04-24T10:21:36;3.38;;;1.13;;
48052;SDS011;33824;51.600;5.718;2023-04-24T10:24:07;3.23;;;0.90;;
48052;SDS011;33824;51.600;5.718;2023-04-24T10:26:34;3.15;;;0.90;;
48052;SDS011;33824;51.600;5.718;2023-04-24T10:29:00;4.28;;;1.75;;
48052;SDS011;33824;51.600;5.718;2023-04-24T10:31:27;2.70;;;0.80;;
48052;SDS011;33824;51.600;5.718;2023-04-24T10:33:56;1.88;;;1.45;;
48052;SDS011;33824;51.600;5.718;2023-04-24T10:36:23;3.65;;;0.90;;
48052;SDS011;33824;51.600;5.718;2023-04-24T10:38:51;2.78;;;0.98;;
48052;SDS011;33824;51.600;5.718;2023-04-24T10:41:20;1.75;;;1.08;;
48052;SDS011;33824;51.600;5.718;2023-04-24T10:43:48;1.95;;;0.70;;
48052;SDS011;33824;51.600;5.718;2023-04-24T10:46:29;4.47;;;0.90;;
48052;SDS011;33824;51.600;5.718;2023-04-24T10:48:55;1.65;;;0.82;;
48052;SDS011;33824;51.600;5.718;2023-04-24T10:51:22;2.42;;;0.70;;
48052;SDS011;33824;51.600;5.718;2023-04-24T10:53:49;1.88;;;0.70;;
48052;SDS011;33824;51.600;5.718;2023-04-24T10:56:16;2.80;;;0.70;;
48052;SDS011;33824;51.600;5.718;2023-04-24T10:58:43;1.92;;;0.70;;
48052;SDS011;33824;51.600;5.718;2023-04-24T11:01:23;2.45;;;0.60;;
48052;SDS011;33824;51.600;5.718;2023-04-24T11:04:02;2.92;;;0.70;;
48052;SDS011;33824;51.600;5.718;2023-04-24T11:06:29;3.45;;;0.90;;
48052;SDS011;33824;51.600;5.718;2023-04-24T11:09:07;0.30;;;0.30;;
48052;SDS011;33824;51.600;5.718;2023-04-24T11:11:34;0.40;;;0.30;;
48052;SDS011;33824;51.600;5.718;2023-04-24T11:14:03;0.50;;;0.50;;
48052;SDS011;33824;51.600;5.718;2023-04-24T11:16:32;4.15;;;1.00;;
48052;SDS011;33824;51.600;5.718;2023-04-24T11:19:01;3.38;;;0.60;;
48052;SDS011;33824;51.600;5.718;2023-04-24T11:27:11;1.42;;;0.73;;
48052;SDS011;33824;51.600;5.718;2023-04-24T11:29:42;1.27;;;0.40;;
48052;SDS011;33824;51.600;5.718;2023-04-24T11:32:23;0.77;;;0.73;;
48052;SDS011;33824;51.600;5.718;2023-04-24T11:34:51;7.32;;;0.80;;
48052;SDS011;33824;51.600;5.718;2023-04-24T11:37:18;1.73;;;0.70;;
48052;SDS011;33824;51.600;5.718;2023-04-24T11:39:44;2.58;;;0.80;;
48052;SDS011;33824;51.600;5.718;2023-04-24T11:42:10;1.40;;;0.60;;
48052;SDS011;33824;51.600;5.718;2023-04-24T11:44:38;2.97;;;0.65;;
48052;SDS011;33824;51.600;5.718;2023-04-24T11:47:06;0.55;;;0.22;;
48052;SDS011;33824;51.600;5.718;2023-04-24T11:49:33;1.15;;;0.50;;
48052;SDS011;33824;51.600;5.718;2023-04-24T11:51:59;2.03;;;0.30;;
48052;SDS011;33824;51.600;5.718;2023-04-24T11:54:26;4.50;;;0.68;;
48052;SDS011;33824;51.600;5.718;2023-04-24T11:56:52;2.30;;;0.50;;
48052;SDS011;33824;51.600;5.718;2023-04-24T11:59:18;3.25;;;0.47;;
48052;SDS011;33824;51.600;5.718;2023-04-24T12:01:47;6.10;;;0.60;;
48052;SDS011;33824;51.600;5.718;2023-04-24T12:04:14;2.92;;;0.45;;
48052;SDS011;33824;51.600;5.718;2023-04-24T12:06:58;1.83;;;0.50;;
48052;SDS011;33824;51.600;5.718;2023-04-24T12:09:24;0.77;;;0.38;;
48052;SDS011;33824;51.600;5.718;2023-04-24T12:11:54;4.47;;;0.47;;
48052;SDS011;33824;51.600;5.718;2023-04-24T12:14:22;2.42;;;0.40;;
48052;SDS011;33824;51.600;5.718;2023-04-24T12:16:49;2.75;;;0.43;;
48052;SDS011;33824;51.600;5.718;2023-04-24T12:19:20;1.10;;;0.60;;
48052;SDS011;33824;51.600;5.718;2023-04-24T12:21:58;7.43;;;0.65;;
48052;SDS011;33824;51.600;5.718;2023-04-24T12:24:25;1.05;;;0.30;;
48052;SDS011;33824;51.600;5.718;2023-04-24T12:26:51;0.75;;;0.30;;
48052;SDS011;33824;51.600;5.718;2023-04-24T12:29:20;2.95;;;0.50;;
48052;SDS011;33824;51.600;5.718;2023-04-24T12:31:45;2.60;;;0.52;;
48052;SDS011;33824;51.600;5.718;2023-04-24T12:34:18;1.92;;;0.50;;
48052;SDS011;33824;51.600;5.718;2023-04-24T12:36:48;1.45;;;0.50;;
48052;SDS011;33824;51.600;5.718;2023-04-24T12:41:55;5.82;;;0.73;;
48052;SDS011;33824;51.600;5.718;2023-04-24T12:44:31;1.17;;;0.50;;
48052;SDS011;33824;51.600;5.718;2023-04-24T12:47:02;0.82;;;0.52;;
48052;SDS011;33824;51.600;5.718;2023-04-24T12:49:31;1.88;;;0.50;;
48052;SDS011;33824;51.600;5.718;2023-04-24T12:51:56;5.68;;;0.85;;
48052;SDS011;33824;51.600;5.718;2023-04-24T12:54:22;1.38;;;0.57;;
48052;SDS011;33824;51.600;5.718;2023-04-24T12:56:48;1.38;;;0.60;;
48052;SDS011;33824;51.600;5.718;2023-04-24T12:59:13;1.05;;;0.50;;
48052;SDS011;33824;51.600;5.718;2023-04-24T13:01:39;0.93;;;0.57;;
48052;SDS011;33824;51.600;5.718;2023-04-24T13:04:05;1.05;;;0.50;;
48052;SDS011;33824;51.600;5.718;2023-04-24T13:06:31;1.33;;;0.50;;
48052;SDS011;33824;51.600;5.718;2023-04-24T13:08:57;1.15;;;0.50;;
48052;SDS011;33824;51.600;5.718;2023-04-24T13:11:23;1.15;;;0.50;;
48052;SDS011;33824;51.600;5.718;2023-04-24T13:13:49;0.60;;;0.40;;
48052;SDS011;33824;51.600;5.718;2023-04-24T13:16:15;3.60;;;0.88;;
48052;SDS011;33824;51.600;5.718;2023-04-24T13:18:40;0.40;;;0.30;;
48052;SDS011;33824;51.600;5.718;2023-04-24T13:21:06;3.25;;;0.60;;
48052;SDS011;33824;51.600;5.718;2023-04-24T13:23:32;1.58;;;0.50;;
48052;SDS011;33824;51.600;5.718;2023-04-24T13:25:57;1.08;;;0.32;;
48052;SDS011;33824;51.600;5.718;2023-04-24T13:28:26;3.80;;;0.52;;
48052;SDS011;33824;51.600;5.718;2023-04-24T13:30:52;0.88;;;0.50;;
48052;SDS011;33824;51.600;5.718;2023-04-24T13:33:17;0.22;;;0.22;;
48052;SDS011;33824;51.600;5.718;2023-04-24T13:35:43;1.15;;;0.40;;
48052;SDS011;33824;51.600;5.718;2023-04-24T13:38:10;1.38;;;0.55;;
48052;SDS011;33824;51.600;5.718;2023-04-24T13:40:36;2.85;;;0.65;;
48052;SDS011;33824;51.600;5.718;2023-04-24T13:43:01;1.33;;;0.47;;
48052;SDS011;33824;51.600;5.718;2023-04-24T13:45:28;1.25;;;0.50;;
48052;SDS011;33824;51.600;5.718;2023-04-24T13:47:53;2.33;;;0.50;;
48052;SDS011;33824;51.600;5.718;2023-04-24T13:50:19;1.25;;;0.60;;
48052;SDS011;33824;51.600;5.718;2023-04-24T13:52:45;1.02;;;0.63;;
48052;SDS011;33824;51.600;5.718;2023-04-24T13:55:11;0.63;;;0.40;;
48052;SDS011;33824;51.600;5.718;2023-04-24T13:57:36;1.13;;;0.40;;
48052;SDS011;33824;51.600;5.718;2023-04-24T14:00:02;1.30;;;0.40;;
48052;SDS011;33824;51.600;5.718;2023-04-24T14:02:29;0.32;;;0.32;;
48052;SDS011;33824;51.600;5.718;2023-04-24T14:04:55;0.82;;;0.50;;
48052;SDS011;33824;51.600;5.718;2023-04-24T14:07:20;0.50;;;0.43;;
48052;SDS011;33824;51.600;5.718;2023-04-24T14:09:46;1.25;;;0.40;;
48052;SDS011;33824;51.600;5.718;2023-04-24T14:12:12;0.60;;;0.43;;
48052;SDS011;33824;51.600;5.718;2023-04-24T14:14:38;1.70;;;0.52;;
48052;SDS011;33824;51.600;5.718;2023-04-24T14:17:03;2.05;;;0.50;;
48052;SDS011;33824;51.600;5.718;2023-04-24T14:19:29;3.20;;;0.60;;
48052;SDS011;33824;51.600;5.718;2023-04-24T14:21:54;0.85;;;0.40;;
48052;SDS011;33824;51.600;5.718;2023-04-24T14:24:22;2.20;;;0.30;;
48052;SDS011;33824;51.600;5.718;2023-04-24T14:26:47;3.10;;;0.70;;
48052;SDS011;33824;51.600;5.718;2023-04-24T14:29:13;2.33;;;0.98;;
48052;SDS011;33824;51.600;5.718;2023-04-24T14:31:38;1.75;;;0.43;;
48052;SDS011;33824;51.600;5.718;2023-04-24T14:34:04;1.83;;;0.60;;
48052;SDS011;33824;51.600;5.718;2023-04-24T14:36:29;3.05;;;0.52;;
48052;SDS011;33824;51.600;5.718;2023-04-24T14:38:56;1.50;;;0.50;;
48052;SDS011;33824;51.600;5.718;2023-04-24T14:41:22;2.55;;;0.60;;
48052;SDS011;33824;51.600;5.718;2023-04-24T14:43:47;1.50;;;0.50;;
48052;SDS011;33824;51.600;5.718;2023-04-24T14:46:16;4.05;;;0.50;;
48052;SDS011;33824;51.600;5.718;2023-04-24T14:48:41;2.15;;;0.68;;
48052;SDS011;33824;51.600;5.718;2023-04-24T14:51:07;1.27;;;0.60;;
48052;SDS011;33824;51.600;5.718;2023-04-24T14:53:32;2.03;;;0.98;;
48052;SDS011;33824;51.600;5.718;2023-04-24T14:55:58;2.30;;;0.85;;
48052;SDS011;33824;51.600;5.718;2023-04-24T14:58:23;2.58;;;0.85;;